| Station | Date | Time | Temp (°F) | RH (%) | Dew Pt (°F) | Wind Spd (mph) | Wind Dir (°) | Wind Gust (mph) | Wind Gst Dir (°) | Latest Rain (In) | Soil Moist (%) | Soil Temp (°F) | Daily Rain (In) | Daily Min Temp (°F) | Daily Max Temp (°F) | Daily Max Wind (mph) |
|---|---|---|---|---|---|---|---|---|---|---|---|---|---|---|---|---|
| Hobart Mills | 8/31/26 | 0120 | 47.3 4.4 | 51 15 | 30.0 2.1 | 2.3 0.7 | W | 272 | 3.6 1.0 | W | 275 | 0.00 | 7.7 0.0 | 68.6 0.3 | 0.00 | 47.1 4.6 | 47.3 3.2 | 4.0 1.4 |
| Prosser Dam | 8/31/26 | 0120 | 46.9 3.3 | 70 7 | 37.8 0.8 | 0.7 2.6 | WSW | 246 | 2.2 2.1 | WSW | 250 | 0.00 | 5.4 0.0 | 64.8 0.2 | 0.00 | 46.4 3.5 | 48.1 4.1 | 2.2 2.1 |
| West Incline Village | 8/31/26 | 0120 | 56.5 4.3 | 56 24 | 41.0 17.6 | 2.1 0.3 | NNE | 16 | 2.7 3.9 | NNE | 16 | 0.00 | 11.9 0.1 | 59.2 0.8 | 0.00 | 56.3 4.8 | 57.6 4.7 | 2.9 3.7 |
| Incline Village (Fairview Blvd) | 8/31/26 | 0120 | 58.5 2.7 | 53 23 | 41.6 16.4 | 0.5 1.2 | NNE | 30 | 2.4 1.5 | NNE | 31 | 0.00 | 7.7 0.0 | 72.2 0.9 | 0.00 | 58.4 3.0 | 59.2 3.3 | 2.4 1.5 |
| Incline Village (Diamond Peak) | 8/31/26 | 0120 | 57.1 4.2 | 51 16 | 39.4 13.4 | 0.0 2.2 | N | 0 | 0.0 6.3 | NE | 52 | 0.00 | 2.5 0.0 | 62.0 0.7 | 0.00 | 57.0 4.6 | 57.5 4.4 | 0.0 6.2 |
| Incline Village (Mill Creek) | 5/30/36 | 1610 | 74.5 | 37 | 46.5 | 0.5 | SW | 236 | 1.7 | SSW | 213 | 0.00 | 0.0 | 0.0 | 0.00 | 74.4 | 74.5 | 1.7 |
| Incline Village (Lakeshore Blvd) | 8/31/26 | 0120 | 51.2 3.3 | 70 5 | 41.7 1.5 | 0.4 0.2 | NE | 46 | 1.1 0.2 | NE | 45 | 0.00 | 18.3 3.3 | 61.9 0.5 | 0.00 | 51.0 3.2 | 51.6 3.1 | 1.2 0.9 |
| Glenbrook | 8/31/26 | 0120 | 53.3 0.5 | 64 22 | 41.4 11.1 | 2.6 0.0 | ESE | 120 | 3.7 0.9 | ESE | 115 | 0.00 | 42.8 0.1 | 59.8 0.4 | 0.00 | 53.1 1.1 | 54.0 1.8 | 4.2 1.1 |
| Zephyr Cove | 8/31/26 | 0120 | 55.5 0.9 | 63 27 | 43.0 15.1 | 0.0 0.0 | N | 0 | 0.0 0.0 | NNW | 341 | 0.00 | 2.8 0.1 | 66.9 2.5 | 0.00 | 55.1 0.6 | 55.6 0.2 | 0.0 0.0 |
| Kingsbury Grade | 8/31/26 | 0120 | 53.1 1.7 | 54 22 | 37.0 11.1 | 2.3 1.5 | NNE | 19 | 3.6 0.1 | NNE | 19 | 0.00 | 2.6 0.2 | 70.0 1.2 | 0.00 | 53.0 0.4 | 53.3 2.2 | 3.6 1.9 |
| South Daggett Pass (Ridge) | 8/31/26 | 0120 | 59.2 6.6 | 41 9 | 35.2 11.7 | 2.0 0.2 | SSE | 162 | 3.4 3.5 | SSE | 156 | 0.00 | 2.2 0.0 | 64.0 0.7 | 0.00 | 56.7 4.4 | 59.8 6.8 | 3.4 7.1 |
| Palomino Valley | 8/31/26 | 0120 | 57.6 2.6 | 35 5 | 30.1 0.8 | 2.0 3.1 | ESE | 112 | 3.2 8.1 | ESE | 120 | 0.00 | 6.7 0.0 | 79.8 0.9 | 0.00 | 56.4 2.6 | 59.0 2.5 | 3.2 8.1 |
| East Cold Springs | 8/31/26 | 0120 | 62.2 7.7 | 33 8 | 32.8 1.3 | 8.3 2.8 | W | 261 | 10.8 3.4 | WSW | 256 | 0.00 | 1.6 0.0 | 72.8 0.1 | 0.00 | 61.9 8.5 | 63.1 8.0 | 11.2 3.7 |
| Peavine | 8/22/26 | 1700 | 81.6 1.5 | 27 0 | 44.0 1.5 | 22.7 10.4 | SW | 225 | 48.4 26.2 | SW | 220 | 0.00 | - | 53.4 0.0 | 0.00 | 69.4 2.1 | 87.6 2.1 | 48.4 26.2 |
| West Verdi Peak | 8/31/26 | 0220 | 57.6 3.0 | 39 5 | 32.8 0.6 | 0.1 0.2 | WNW | 293 | 1.6 0.1 | WNW | 292 | 0.00 | 6.6 0.1 | 71.4 0.1 | 0.00 | 54.0 2.0 | 59.2 4.3 | 5.8 1.6 |
| West Verdi | 8/31/26 | 0120 | 59.9 0.7 | 42 0 | 36.5 0.7 | 2.1 2.3 | WNW | 292 | 4.8 1.7 | WNW | 289 | 0.00 | 6.3 0.0 | 82.5 0.7 | 0.00 | 59.5 0.8 | 60.4 0.6 | 4.8 6.0 |
| South Verdi | 8/31/26 | 0120 | 59.8 0.8 | 44 9 | 37.6 5.2 | 13.2 3.5 | SW | 225 | 15.5 3.7 | SW | 232 | 0.00 | 10.8 0.1 | 75.3 2.2 | 0.00 | 58.8 1.5 | 62.6 1.2 | 15.5 2.1 |
| Northwest Reno | 8/31/26 | 0120 | 63.9 3.0 | 33 0 | 34.6 2.8 | 4.2 0.3 | NNE | 21 | 6.1 5.3 | NNE | 33 | 0.00 | 25.3 0.0 | 79.5 1.2 | 0.00 | 63.7 4.2 | 65.1 0.1 | 6.3 9.9 |
| North Lawton | 8/28/26 | 1620 | 63.8 17.1 | 74 52 | 55.4 16.5 | 1.5 11.6 | ESE | 121 | 5.1 19.0 | SE | 124 | 0.00 | - | 78.2 0.0 | 0.05 | 59.2 7.5 | 71.9 13.3 | 20.4 4.6 |
| West Reno (Mogul) | 8/31/26 | 0120 | 62.8 2.9 | 39 0 | 37.4 2.9 | 1.6 1.9 | WNW | 295 | 7.9 1.0 | WNW | 297 | 0.00 | 19.7 0.0 | 79.3 0.3 | 0.00 | 62.1 2.7 | 63.5 3.2 | 8.1 2.1 |
| Caughlin (Hunter Lake Trail) | 8/31/26 | 0120 | 65.0 5.6 | 36 1 | 37.7 5.5 | 3.3 4.7 | SSW | 192 | 5.7 5.5 | SW | 215 | 0.00 | 16.6 0.1 | 75.4 0.0 | 0.00 | 63.8 5.6 | 66.3 6.2 | 5.7 5.5 |
| ArrowCreek | 8/31/26 | 0120 | 61.0 3.9 | 42 1 | 37.7 3.0 | 3.5 2.2 | S | 185 | 6.3 0.7 | SSE | 166 | 0.00 | - | 32.0 0.0 | 0.00 | 60.6 4.0 | 61.8 3.5 | 6.6 0.5 |
| Tracy | 8/31/26 | 0120 | 67.7 0.6 | 32 4 | 36.5 3.5 | 2.4 4.7 | WNW | 284 | 7.5 4.1 | WSW | 240 | 0.00 | 16.2 0.1 | 81.8 0.6 | 0.00 | 65.9 0.2 | 69.7 0.7 | 7.5 4.1 |
| Virginia Highlands | 8/31/26 | 0120 | 63.8 8.4 | 31 14 | 33.0 1.6 | 2.8 0.1 | S | 171 | 4.2 0.4 | SSE | 167 | 0.00 | 8.0 0.1 | 74.5 0.5 | 0.00 | 63.5 8.9 | 64.0 5.1 | 4.2 0.2 |
| Virginia City | 8/31/26 | 0120 | 65.3 6.6 | 28 7 | 31.1 0.1 | 2.2 4.2 | NW | 309 | 3.6 6.8 | NNE | 23 | 0.00 | 4.9 0.0 | 76.3 0.5 | 0.00 | 64.8 6.7 | 65.6 6.0 | 4.7 5.7 |
| Six Mile Canyon | 8/31/26 | 0120 | 66.6 1.9 | 27 4 | 32.0 1.5 | 2.1 3.9 | NW | 325 | 3.7 4.3 | N | 2 | 0.00 | 12.6 0.1 | 80.7 1.4 | 0.00 | 65.0 1.5 | 67.0 1.3 | 5.2 2.9 |
| Mt Rose Highway | 8/31/26 | 0120 | 57.7 3.8 | 40 9 | 33.5 1.6 | 3.8 3.4 | SW | 225 | 7.7 5.0 | WSW | 243 | 0.00 | 7.5 0.0 | 62.8 0.8 | 0.00 | 57.6 4.0 | 58.2 3.6 | 7.7 4.0 |
| Pleasant Valley | 8/31/26 | 0120 | 58.5 2.0 | 47 2 | 38.5 3.2 | 1.1 1.0 | W | 264 | 3.0 1.7 | W | 275 | 0.00 | 2.3 0.1 | 79.7 0.4 | 0.00 | 57.7 1.6 | 59.1 1.8 | 3.0 1.7 |
| New Washoe City | 8/31/26 | 0120 | 57.7 0.1 | 41 6 | 34.1 3.5 | 4.6 3.6 | NNE | 33 | 8.3 3.7 | NE | 50 | 0.00 | 3.5 0.0 | 74.1 0.5 | 0.00 | 57.3 1.5 | 58.4 0.6 | 8.3 1.2 |
| Franktown Creek | 8/31/26 | 0120 | 57.3 3.4 | 48 11 | 37.9 2.0 | 0.2 0.9 | WNW | 287 | 2.5 0.5 | WNW | 294 | 0.00 | 7.2 0.0 | 73.2 0.6 | 0.00 | 56.5 2.8 | 57.9 3.6 | 2.9 0.1 |
| Musgrove Creek | 8/31/26 | 0120 | 63.0 6.4 | 36 8 | 35.5 0.5 | 1.0 0.1 | SW | 215 | 2.2 1.1 | SSW | 203 | 0.00 | 10.3 0.0 | 61.2 0.4 | 0.00 | 62.4 6.9 | 63.4 4.6 | 2.7 0.6 |
| East Carson | 11/23/24 | 0110 | 28.6 28.4 | - | - | 4.7 11.0 | SW | 220 | 14.7 10.1 | SW | 219 | 0.02 | - | 50.9 0.1 | 0.02 | -25.9 79.1 | 42.9 14.6 | 16.0 10.7 |
| Kings Canyon | 8/31/26 | 0120 | 57.6 2.6 | 43 5 | 35.3 5.2 | 3.3 0.3 | S | 186 | 5.0 0.9 | SSE | 156 | 0.00 | 4.1 0.0 | 71.2 0.1 | 0.00 | 57.3 3.7 | 59.6 3.8 | 7.0 1.1 |
| Carson City (Voltaire Canyon) | 8/31/26 | 0120 | 68.2 5.7 | 32 11 | 36.9 2.6 | 8.0 6.0 | WSW | 239 | 10.2 5.1 | WSW | 239 | 0.00 | 2.8 0.1 | 79.1 0.8 | 0.00 | 67.6 6.0 | 69.3 6.2 | 10.2 4.1 |
| Jacks Valley | 8/31/26 | 0120 | 61.9 6.2 | 43 1 | 38.9 5.3 | 2.0 0.1 | SW | 235 | 2.9 4.1 | SW | 234 | 0.00 | 4.6 0.2 | 80.1 3.2 | 0.00 | 60.7 5.3 | 62.3 4.8 | 2.9 4.1 |
| Genoa | 8/31/26 | 0120 | 62.4 2.9 | 45 1 | 40.9 2.3 | 0.0 0.0 | WNW | 287 | 0.9 0.1 | WNW | 282 | 0.00 | 2.3 0.2 | 70.4 3.0 | 0.00 | 62.3 3.2 | 64.0 3.8 | 0.9 1.4 |
| South Genoa (Walleys Hot Springs) | 8/31/26 | 0120 | 60.2 1.1 | 57 14 | 44.7 6.1 | 0.0 0.3 | N | 0 | 0.0 4.7 | S | 189 | 0.00 | 5.0 0.4 | 74.6 0.9 | 0.00 | 57.8 1.0 | 61.4 2.7 | 0.0 4.7 |
| SW Gardnerville (HWY 88) | 8/31/26 | 0120 | 53.9 1.0 | 69 11 | 44.0 3.4 | 0.0 1.8 | N | 0 | 0.0 4.2 | WNW | 286 | 0.00 | 2.8 0.0 | 70.7 0.3 | 0.00 | 53.0 2.5 | 61.7 6.1 | 0.0 7.8 |
| Sheridan | 8/31/26 | 0120 | 62.6 2.8 | 45 10 | 40.9 8.9 | 2.8 2.9 | W | 265 | 3.8 4.5 | WSW | 239 | 0.00 | 1.1 0.0 | 76.5 0.8 | 0.00 | 60.2 2.0 | 63.2 1.9 | 3.8 4.5 |
| Ruhenstroth | 8/31/26 | 0120 | 63.4 1.1 | 42 8 | 40.0 4.1 | 2.8 5.6 | S | 176 | 5.2 6.7 | SSE | 155 | 0.00 | 6.9 0.1 | 78.5 2.6 | 0.00 | 63.2 0.6 | 63.7 2.1 | 5.2 6.7 |
| Double Spring | 8/31/26 | 0120 | 54.6 3.4 | 58 4 | 40.2 5.1 | 3.1 1.5 | NNW | 337 | 5.0 1.2 | NW | 324 | 0.00 | 25.8 0.2 | 75.4 2.5 | 0.00 | 54.2 4.1 | 56.2 1.2 | 5.3 1.6 |
| North Topaz Lake | 8/31/26 | 0120 | 66.0 1.1 | 40 14 | 40.9 12.0 | 1.9 4.6 | SSE | 160 | 4.2 5.3 | SE | 142 | 0.00 | 7.4 0.1 | 72.6 3.4 | 0.00 | 65.0 0.6 | 66.8 1.2 | 6.5 3.2 |
| Wild Oat Mountain | 8/31/26 | 0120 | 65.2 3.1 | 40 9 | 40.5 8.8 | 3.3 0.3 | NNW | 331 | 5.2 1.0 | NNW | 330 | 0.00 | 5.9 0.1 | 75.0 3.0 | 0.00 | 64.2 2.5 | 65.5 2.3 | 6.2 0.7 |
| Smith Valley | 8/31/26 | 0120 | 62.1 2.7 | 43 13 | 39.6 6.3 | 2.2 2.7 | SW | 234 | 4.5 2.6 | WSW | 245 | 0.00 | 2.9 0.0 | 80.5 1.2 | 0.00 | 60.0 3.1 | 65.6 0.4 | 4.5 2.6 |
| Pine Grove Mountain | 8/31/26 | 0120 | 57.6 1.3 | 24 3 | 20.9 4.5 | 5.7 2.0 | N | 2 | 7.6 0.1 | N | 354 | 0.00 | 7.4 0.1 | 67.5 1.2 | 0.00 | 57.5 1.6 | 57.8 1.0 | 7.9 0.2 |
| Paradise Hill | 8/31/26 | 0120 | 63.7 5.6 | 23 9 | 25.7 3.1 | 8.1 5.4 | NE | 35 | 11.0 4.6 | NNE | 28 | 0.00 | 10.4 0.0 | 76.3 1.0 | 0.00 | 63.2 6.0 | 64.8 1.3 | 13.0 5.5 |
| Winnemucca | 8/31/26 | 0120 | 61.7 0.1 | 24 1 | 25.1 1.1 | 6.6 1.4 | NE | 50 | 8.7 0.0 | NE | 39 | 0.00 | 5.8 0.0 | 77.2 0.2 | 0.00 | 61.1 0.7 | 62.3 0.7 | 8.7 0.0 |
| NE Elko | 8/31/26 | 0120 | 47.4 8.0 | 34 14 | 20.3 15.7 | 0.1 1.6 | N | 352 | 1.0 1.9 | N | 351 | 0.00 | 5.8 0.0 | 74.8 0.3 | 0.00 | 46.3 8.7 | 49.6 6.1 | 3.7 0.4 |
| North Elko | 8/31/26 | 0120 | 61.9 3.5 | 27 10 | 27.3 11.2 | 6.2 0.8 | NNE | 21 | 10.7 4.2 | NNE | 25 | 0.00 | 24.9 0.1 | 74.7 0.3 | 0.00 | 61.3 3.7 | 62.1 4.4 | 10.7 4.2 |
| South Elko | 8/31/26 | 0120 | 59.3 4.8 | 30 9 | 27.6 11.1 | 0.7 4.3 | WSW | 242 | 3.1 3.0 | SSW | 211 | 0.00 | 13.8 0.0 | 72.4 0.6 | 0.00 | 58.1 5.8 | 63.2 1.5 | 11.7 5.6 |
| Lamoille | 8/31/26 | 0120 | 52.8 11.7 | 37 3 | 27.5 12.7 | 2.6 4.1 | S | 174 | 5.3 2.7 | SE | 139 | 0.00 | 6.6 0.1 | 69.4 0.3 | 0.00 | 51.2 11.7 | 53.6 11.3 | 5.3 2.7 |
| Reid Gardner Sub | 8/31/26 | 0120 | 75.7 17.7 | 30 7 | 41.7 7.7 | 0.6 10.1 | SW | 224 | 3.4 12.7 | SE | 135 | 0.00 | 24.8 2.2 | 91.6 1.5 | 0.00 | 75.1 18.2 | 77.0 16.7 | 5.7 11.2 |
| Corn Creek | 8/31/26 | 0120 | 82.0 6.2 | 24 0 | 41.7 5.5 | 0.5 3.8 | S | 189 | 3.0 6.3 | SSW | 192 | 0.00 | 3.2 0.0 | 91.8 3.7 | 0.00 | 81.6 5.8 | 82.4 6.0 | 3.2 6.1 |
| Lucky Strike | 8/31/26 | 0120 | 74.0 1.6 | 30 2 | 40.9 0.3 | 6.8 0.2 | SSW | 198 | 8.7 1.9 | SSW | 195 | 0.00 | 3.2 0.1 | 83.5 4.5 | 0.00 | 73.5 1.7 | 74.3 2.4 | 10.1 4.2 |
| Lower Angel Peak | 8/31/26 | 0120 | 65.5 3.8 | 41 6 | 41.5 0.4 | 4.0 1.7 | SSE | 158 | 6.5 1.2 | S | 188 | 0.00 | 3.2 0.0 | 75.9 3.0 | 0.00 | 64.4 4.7 | 68.0 1.7 | 6.8 2.2 |
| Angel Peak | 8/31/26 | 0120 | 59.2 0.6 | 48 4 | 39.6 1.3 | 10.0 1.8 | SSE | 160 | 14.8 5.7 | SSE | 158 | 0.00 | 2.5 0.0 | 66.3 3.6 | 0.00 | 58.8 0.7 | 59.5 0.9 | 14.8 5.7 |
| Upper Kyle Canyon | 8/31/26 | 0120 | 64.8 1.4 | 41 2 | 40.6 0.1 | 6.1 0.5 | ENE | 73 | 12.8 1.9 | ESE | 109 | 0.00 | 7.8 0.0 | 77.0 1.2 | 0.00 | 64.5 1.2 | 65.2 1.4 | 12.8 1.9 |
| Mt Charleston | 8/31/26 | 0120 | 64.6 3.4 | 42 2 | 40.8 1.9 | 3.0 0.1 | SW | 236 | 10.6 5.3 | SSE | 167 | 0.00 | 13.4 0.0 | 69.5 1.3 | 0.00 | 64.0 3.3 | 65.9 4.1 | 10.6 5.3 |
| Mid Kyle Canyon | 8/31/26 | 0120 | 65.0 2.3 | 41 4 | 40.9 0.3 | 5.1 3.5 | WNW | 295 | 6.7 3.2 | NW | 309 | 0.00 | 5.9 0.0 | 76.2 3.5 | 0.00 | 64.3 2.8 | 67.9 0.5 | 10.4 5.2 |
| Blue Diamond | 8/31/26 | 0120 | 81.1 3.3 | 26 2 | 43.2 4.7 | 1.4 3.8 | W | 275 | 6.1 6.7 | NW | 324 | 0.00 | 1.3 0.0 | 89.7 2.3 | 0.00 | 79.9 4.3 | 82.9 2.2 | 6.1 6.7 |
| Artesian Sub | 8/31/26 | 0120 | 86.4 7.9 | 23 2 | 44.5 4.5 | 1.8 4.2 | W | 266 | 3.8 7.5 | W | 271 | 0.00 | 11.8 0.0 | 94.6 0.0 | 0.00 | 86.2 8.0 | 87.4 7.6 | 3.8 13.3 |
| North Henderson | 8/31/26 | 0120 | 90.6 4.4 | 29 5 | 54.0 1.9 | 4.7 4.0 | NW | 315 | 6.1 10.3 | NW | 313 | 0.00 | 10.3 0.3 | 99.5 0.6 | 0.00 | 90.3 4.5 | 90.9 4.6 | 6.1 12.5 |
| Sandy Valley | 8/31/26 | 0120 | 83.1 2.6 | 30 2 | 48.6 4.3 | 1.9 0.4 | E | 86 | 3.4 7.0 | ESE | 111 | 0.00 | 8.8 0.3 | 94.0 2.1 | 0.00 | 82.5 2.0 | 83.3 2.6 | 5.3 5.0 |
| Searchlight | 8/31/26 | 0120 | 74.6 8.9 | 60 24 | 59.8 6.5 | 3.1 9.2 | NW | 325 | 3.7 14.7 | NW | 314 | 0.00 | 6.3 0.2 | 93.0 0.9 | 0.00 | 74.1 9.3 | 76.2 7.6 | 4.5 13.9 |
| Laughlin | 8/31/26 | 0120 | 90.0 8.1 | 42 16 | 64.1 6.2 | 0.9 0.9 | SW | 222 | 2.5 2.5 | SW | 227 | 0.00 | 4.7 0.0 | 104.2 0.9 | 0.00 | 89.6 8.3 | 90.0 8.6 | 2.5 0.0 |
| 31Mission Hills | 8/31/26 | 0120 | 85.8 4.7 | 39 14 | 57.8 8.4 | 10.1 3.1 | SSE | 159 | 13.2 2.7 | SE | 145 | 0.00 | 7.4 0.1 | 93.3 2.1 | 0.00 | 85.6 4.8 | 85.9 5.1 | 13.2 2.7 |
| 32 Enterprise Sierra Cliffs | 8/31/26 | 0120 | 84.7 2.6 | 20 5 | 39.8 7.9 | 11.8 11.3 | SW | 229 | 15.8 14.2 | SW | 221 | 0.00 | 1.4 0.1 | 89.6 4.3 | 0.00 | 84.4 2.6 | 85.1 2.6 | 16.0 13.9 |
| 29 Calico Basin | 8/31/26 | 0120 | 82.7 1.2 | 22 1 | 39.8 0.2 | 5.0 9.3 | WSW | 252 | 8.3 12.0 | WNW | 285 | 0.00 | 2.7 0.1 | 89.6 2.8 | 0.00 | 82.2 1.6 | 83.2 0.9 | 8.3 12.2 |
| 28 Indian Springs | 8/31/26 | 0120 | 76.5 10.1 | 24 4 | 36.6 3.3 | 4.2 2.5 | E | 96 | 6.1 6.6 | E | 87 | 0.00 | 4.8 0.1 | 92.2 1.6 | 0.00 | 75.6 10.5 | 77.3 9.7 | 6.1 7.0 |
| 30 Jean | 8/31/26 | 0120 | 81.0 3.9 | 26 2 | 42.5 5.3 | 8.5 0.8 | WSW | 241 | 16.0 2.1 | WSW | 250 | 0.00 | 5.5 0.2 | 90.3 3.1 | 0.00 | 79.8 4.8 | 82.6 2.7 | 16.0 0.1 |
| VC Highlands NW | 8/31/26 | 0120 | 61.2 6.2 | 32 11 | 31.0 2.1 | 1.5 0.5 | SSE | 161 | 2.5 1.5 | SSE | 159 | 0.00 | 1.6 0.0 | 69.2 1.4 | 0.00 | 60.4 6.5 | 61.4 4.2 | 2.5 1.5 |
| Glenbrook-Spooner Summit | 8/31/26 | 0120 | 50.2 2.3 | 68 24 | 40.2 12.7 | 1.6 0.3 | W | 260 | 2.4 0.1 | W | 260 | 0.00 | 7.8 0.0 | 69.7 2.0 | 0.00 | 50.1 2.3 | 50.5 0.8 | 2.5 1.0 |
| Hobo Hot Springs | 8/31/26 | 0120 | 53.2 2.8 | 67 17 | 42.7 5.1 | 0.3 4.1 | ENE | 60 | 2.5 5.5 | N | 3 | 0.00 | 1.1 0.1 | 73.5 0.1 | 0.00 | 53.0 1.5 | 54.2 3.2 | 3.2 4.7 |
| Jack Valley Ranch 2 | 8/31/26 | 0120 | 62.0 1.3 | 38 10 | 36.2 8.5 | 6.2 1.1 | N | 359 | 7.2 1.1 | N | 0 | 0.00 | 2.2 0.0 | 77.9 0.9 | 0.00 | 61.7 2.9 | 62.7 1.3 | 7.5 0.9 |
| Genoa North 2 | 8/31/26 | 0120 | 63.3 3.2 | 34 0 | 34.6 3.1 | 3.3 0.5 | W | 263 | 5.7 0.4 | WSW | 249 | 0.00 | 0.9 0.1 | 79.9 2.0 | 0.00 | 63.0 3.3 | 63.6 2.9 | 5.7 0.9 |
| Mottsville 2 | 8/31/26 | 0120 | 60.6 0.1 | 50 16 | 42.1 9.9 | 1.1 0.0 | N | 1 | 2.2 3.8 | NNE | 31 | 0.00 | 1.2 0.0 | 76.0 0.5 | 0.00 | 59.2 0.7 | 60.8 3.4 | 2.2 8.6 |
| Kingsbury Village 3 | 8/31/26 | 0120 | 52.6 0.2 | 40 12 | 29.3 8.3 | 2.6 0.5 | NNE | 30 | 3.4 4.3 | NNE | 27 | 0.00 | 3.1 0.1 | 64.3 0.0 | 0.00 | 51.4 0.8 | 53.0 0.1 | 3.4 4.3 |
| Kingsbury-Benjamin Dr 2 | 8/31/26 | 0120 | 55.1 0.9 | 53 26 | 38.5 17.6 | 0.0 1.5 | N | 0 | 0.0 5.7 | WNW | 299 | 0.00 | 3.5 0.2 | 72.9 2.7 | 0.00 | 55.0 1.2 | 55.4 1.1 | 1.4 4.3 |
| Smith Valley-Wellington | 8/31/26 | 0120 | 63.5 0.0 | 40 6 | 38.8 4.2 | 6.3 1.2 | SW | 225 | 8.3 3.7 | SW | 228 | 0.00 | 3.7 0.0 | 82.9 0.7 | 0.00 | 63.4 0.4 | 64.0 0.2 | 8.3 3.7 |
| Sheridan South 2 | 8/31/26 | 0120 | 55.9 0.3 | 60 18 | 42.4 8.9 | 0.9 2.7 | ESE | 121 | 2.9 2.5 | SSW | 198 | 0.00 | 0.6 0.0 | 77.4 1.5 | 0.00 | 54.4 3.3 | 59.7 2.1 | 2.9 4.8 |
| Silver Springs | 8/31/26 | 0120 | 64.4 0.4 | 23 4 | 26.3 4.5 | 2.8 0.9 | ENE | 61 | 4.8 0.5 | ENE | 66 | 0.00 | 5.2 0.1 | 83.5 1.0 | 0.00 | 63.6 0.8 | 67.2 0.0 | 4.8 0.2 |
| Fernley | 8/31/26 | 0120 | 60.7 1.8 | 23 4 | 23.1 5.5 | 1.9 2.2 | SSW | 209 | 2.7 5.2 | SW | 220 | 0.00 | 3.2 0.1 | 79.8 1.5 | 0.00 | 60.2 1.6 | 61.2 3.2 | 5.2 5.5 |
| Spanish Springs | 8/31/26 | 0120 | 57.1 2.7 | 43 10 | 35.1 3.8 | 0.0 1.6 | NNE | 31 | 1.0 2.1 | ENE | 59 | 0.00 | 10.7 0.0 | 81.4 1.0 | 0.00 | 57.1 2.3 | 57.7 5.1 | 2.6 1.7 |
| Suttcliffe South 2 | 8/31/26 | 0120 | 57.5 4.7 | 31 4 | 27.4 0.9 | 1.9 0.5 | WSW | 253 | 3.2 0.0 | W | 264 | 0.00 | 4.6 0.0 | 77.8 0.7 | 0.00 | 54.4 5.5 | 58.1 5.6 | 5.0 1.6 |
| Lemmon Valley North | 8/31/26 | 0120 | 49.1 2.3 | 41 0 | 26.4 1.8 | 0.1 1.6 | N | 1 | 1.4 2.6 | N | 0 | 0.00 | 2.1 0.0 | 74.3 0.8 | 0.00 | 48.5 0.1 | 52.2 2.2 | 2.2 1.7 |
| Lemmon Valley NW 3 | 8/31/26 | 0120 | 54.6 0.8 | 38 1 | 29.3 0.0 | 3.3 3.0 | N | 4 | 4.1 2.2 | N | 352 | 0.00 | 1.3 0.1 | 79.4 2.2 | 0.00 | 53.8 0.6 | 58.1 1.9 | 4.1 1.5 |
| VC Highlands North | 8/31/26 | 0120 | 50.3 1.0 | 43 7 | 28.9 2.7 | 0.0 0.1 | N | 0 | 0.0 1.0 | NNW | 347 | 0.00 | 5.0 0.2 | 71.0 2.4 | 0.00 | 50.0 1.5 | 50.9 0.1 | 0.0 3.4 |
| Upper Voltaire Cyn | 8/31/26 | 0120 | 64.6 2.9 | 29 7 | 31.7 8.9 | 0.6 5.9 | WNW | 302 | 1.7 7.2 | SSW | 200 | 0.00 | 1.2 0.1 | 76.2 1.9 | 0.00 | 64.5 3.2 | 65.7 3.3 | 1.7 7.2 |
| Yerington NW | 8/31/26 | 0120 | 56.7 6.6 | 47 11 | 36.8 0.9 | 3.7 2.5 | S | 174 | 4.6 5.6 | S | 180 | 0.00 | 7.4 0.1 | 77.7 1.7 | 0.00 | 55.4 4.9 | 64.0 4.6 | 4.8 5.3 |
| Spanish Springs SW | 8/31/26 | 0120 | 62.2 3.7 | 31 3 | 31.0 0.9 | 1.9 1.1 | NW | 321 | 3.0 1.0 | NW | 315 | 0.00 | 1.6 0.1 | 80.9 2.2 | 0.00 | 61.9 4.0 | 63.2 2.5 | 3.0 1.0 |
| Cosgrave 2 | 8/27/26 | 0750 | 62.9 4.1 | 34 3 | 33.8 1.4 | 2.6 0.5 | WSW | 246 | 4.1 1.0 | W | 267 | 0.00 | 3.8 0.1 | 77.4 2.9 | 0.00 | 62.7 3.3 | 77.4 3.5 | 11.2 3.9 |
| Winnemucca-Grass Valley 2 | 8/31/26 | 0120 | 48.5 13.0 | 46 19 | 28.7 1.7 | 2.7 1.1 | NE | 41 | 4.5 3.1 | SSW | 210 | 0.00 | 8.1 0.1 | 68.7 0.5 | 0.00 | 47.0 13.2 | 50.0 12.2 | 6.8 0.7 |
| Winnemucca-Dutch Flat Rd | 8/31/26 | 0120 | 62.2 0.6 | 22 8 | 23.5 6.9 | 5.9 1.1 | NNW | 347 | 10.2 0.5 | N | 350 | 0.00 | 6.2 0.1 | 75.0 0.4 | 0.00 | 60.7 0.2 | 62.8 0.8 | 10.2 0.5 |
| Paradise Valley 2 | 8/31/26 | 0120 | 54.5 2.6 | 30 13 | 23.4 6.6 | 4.4 0.3 | N | 349 | 7.1 1.0 | N | 353 | 0.00 | 13.1 0.0 | 75.7 1.0 | 0.00 | 51.2 0.1 | 55.7 0.5 | 8.4 1.4 |
| Golconda 2 | 8/31/26 | 0120 | 62.9 2.7 | 22 9 | 23.1 6.5 | 8.3 3.0 | NW | 307 | 11.3 4.1 | NW | 312 | 0.00 | 1.9 0.0 | 76.9 0.1 | 0.00 | 58.5 1.2 | 63.4 2.2 | 11.3 3.6 |
| Battle Mountain - South | 8/31/26 | 0120 | 51.0 4.7 | 29 6 | 19.8 8.5 | 4.1 1.7 | ENE | 67 | 6.2 0.7 | ENE | 66 | 0.00 | 9.0 0.0 | 77.0 0.4 | 0.00 | 50.2 5.3 | 51.5 6.0 | 6.2 0.7 |
| Geiger Summit | 8/31/26 | 0120 | 59.1 4.4 | 100 0 | 59.1 4.4 | 1.3 1.2 | E | 96 | 1.9 2.6 | E | 93 | 0.00 | 6.4 0.1 | 68.3 1.1 | 0.00 | 58.8 5.4 | 59.8 4.9 | 1.9 2.6 |
| Combs Canyon 3 | 8/31/26 | 0120 | 63.6 5.7 | 39 1 | 38.5 5.5 | 4.5 1.3 | W | 272 | 7.0 1.6 | WNW | 294 | 0.00 | 1.0 0.1 | 77.9 1.5 | 0.00 | 62.4 4.8 | 64.2 4.8 | 7.0 1.6 |
| Clear Creek | 8/31/26 | 0120 | 58.6 0.1 | 38 11 | 32.8 8.6 | 0.5 2.7 | SE | 127 | 2.2 3.1 | ESE | 113 | 0.00 | 3.5 0.1 | 74.9 1.2 | 0.00 | 57.9 2.8 | 59.6 0.5 | 2.2 3.1 |
| Eastlake 2 | 8/31/26 | 0120 | 54.9 3.5 | 56 12 | 39.4 3.0 | 0.1 3.4 | SE | 139 | 1.1 4.3 | S | 176 | 0.00 | 3.5 0.0 | 76.2 0.3 | 0.00 | 54.0 1.4 | 56.6 3.3 | 2.2 4.1 |
| Lovelock-Colado 2 | 8/31/26 | 0120 | 57.3 1.4 | 26 6 | 23.0 6.0 | 7.4 3.2 | NNE | 28 | 9.3 3.5 | NE | 44 | 0.00 | - | 79.4 0.8 | 0.00 | 56.3 0.8 | 58.2 3.2 | 9.3 2.0 |
| Spanish Springs NW | 8/31/26 | 0120 | 58.4 2.4 | 38 7 | 33.1 2.8 | 1.2 2.5 | NNE | 13 | 2.6 3.0 | N | 1 | 0.00 | 12.8 0.1 | 72.6 0.1 | 0.00 | 57.2 2.7 | 59.6 3.5 | 3.1 4.3 |
| Battle Mountain NW | 8/31/26 | 0120 | 58.9 4.9 | 25 1 | 22.8 4.7 | 3.0 3.8 | WNW | 293 | 6.0 4.3 | W | 277 | 0.00 | 9.1 0.1 | 79.2 0.3 | 0.00 | 56.9 6.3 | 59.8 7.3 | 6.0 5.8 |
| Austin 2 | 8/31/26 | 0020 | 46.1 13.8 | 33 3 | 18.6 9.6 | 1.7 4.3 | SW | 214 | 3.8 3.5 | SW | 217 | 0.00 | 2.3 0.1 | 67.9 0.8 | 0.00 | 44.8 14.6 | 46.9 14.5 | 4.7 5.1 |
| Elko-Osino | 8/31/26 | 0120 | 56.4 2.8 | 28 15 | 23.3 12.9 | 7.7 4.1 | NNE | 13 | 10.6 5.8 | N | 1 | 0.00 | 1.6 0.0 | 79.4 0.3 | 0.00 | 55.7 2.5 | 56.7 3.1 | 10.6 5.8 |
| Elko-Bill Fishpond 2 | 8/31/26 | 0120 | 47.8 14.6 | 38 1 | 23.6 14.0 | 1.9 4.8 | ESE | 123 | 5.5 4.1 | SE | 131 | 0.00 | 3.5 0.1 | 70.7 2.6 | 0.00 | 45.6 16.5 | 48.3 14.3 | 5.5 4.7 |
| Spring Creek SE 2 | 8/31/26 | 0120 | 57.6 | 29 | 26.0 | 7.0 | ENE | 64 | 11.8 | ENE | 73 | 0.00 | 0.4 | 72.8 | 0.00 | 57.1 | 58.3 | 11.8 |
| Spring Creek NW | 8/31/26 | 0120 | 59.9 | 27 | 25.9 | 4.1 | NNE | 20 | 7.6 | NNE | 25 | 0.00 | 2.3 | 75.0 | 0.00 | 55.6 | 60.4 | 7.6 |
| Max | 90.6 | 100 | 64.1 | 13.2 | - | 16.0 | - | 0.00 | 42.8 | 104.2 | 0.00 | 90.3 | 90.9 | 16.0 | ||
| Avg | 62.0 | 40 | 35.9 | 3.1 | - | 5.3 | - | 0.00 | 6.8 | 75.3 | - | - | - | - | ||
| Min | 46.1 | 20 | 18.6 | 0.0 | - | 0.0 | - | 0.00 | 0.0 | 0.0 | 0.00 | 44.8 | 46.9 | 0.0 |
| Station | Date | Daily Max Temp (°F) | Daily Min Temp (°F) | Daily Max RH (%) | Daily Min RH (%) | Wind Spd (mph) | Wind Dir (°) | Daily Max Wind (mph) | Max Wind Dir (°) | Time of Max Wind | Daily Rain (In) | Weekly Precip (In) | Season Precip (In) | Soil Moist (%) | Fuel Temp (°F) | Fuel Moisture (%) | MinBV Day (V) |
|---|---|---|---|---|---|---|---|---|---|---|---|---|---|---|---|---|---|
| Hobart Mills | 8/30/26 | 78.8 5.6 | 35.6 8.5 | 74 24 | 19 4 | 2.0 0.2 | WSW | 258 | 15.6 6.1 | SSW | 208 | 1353 | 0.00 | 0.03 | - | 7.6 0.0 | 60.0 0.0 | 8 4 | 12.5 0.1 |
| Prosser Dam | 8/30/26 | 77.6 4.1 | 32.3 10.0 | 96 2 | 21 4 | 3.0 1.3 | WSW | 251 | 19.9 6.2 | W | 269 | 1406 | 0.00 | 0.09 | - | 5.4 0.0 | 60.0 1.2 | 10 9 | 12.3 0.2 |
| West Incline Village | 8/30/26 | 70.3 2.4 | 51.4 0.1 | 54 33 | 23 2 | 2.9 0.6 | NE | 46 | 14.2 6.7 | S | 183 | 1623 | 0.00 | 0.26 | - | 11.9 0.1 | 61.7 2.6 | 9 11 | 12.5 0.1 |
| Incline Village (Fairview Blvd) | 8/30/26 | 72.6 4.1 | 53.3 1.3 | 55 28 | 21 8 | 1.3 0.9 | SW | 224 | 11.2 8.6 | WSW | 240 | 1416 | 0.00 | 0.33 | - | 7.7 0.1 | 65.1 2.9 | 8 10 | 12.7 0.2 |
| Incline Village (Diamond Peak) | 8/30/26 | 69.0 2.8 | 51.6 0.4 | 57 27 | 23 9 | 0.0 0.9 | N | 0 | 11.2 3.0 | NW | 322 | 1357 | 0.00 | 0.03 | - | 2.5 0.0 | -11.4 0.1 | - | 12.5 0.1 |
| Incline Village (Mill Creek) | 8/30/26 | 73.6 4.0 | 48.5 4.6 | 57 34 | 20 9 | 1.5 0.4 | E | 88 | 9.3 5.0 | W | 278 | 1753 | 0.00 | 0.33 | - | 2.9 0.0 | -8.5 | - | 12.5 0.1 |
| Incline Village (Lakeshore Blvd) | 8/30/26 | 72.1 4.0 | 43.0 5.0 | 76 19 | 23 11 | 1.1 2.4 | SSW | 207 | 8.7 8.2 | SW | 216 | 1836 | 0.00 | 0.30 | - | 20.1 3.5 | 60.2 0.3 | 10 4 | 12.4 0.1 |
| Glenbrook | 8/30/26 | 73.8 4.6 | 44.5 5.6 | 68 20 | 24 8 | 2.3 2.3 | S | 183 | 11.4 7.0 | WSW | 250 | 1836 | 0.00 | 0.30 | - | 42.7 0.2 | 54.6 1.6 | 20 14 | 12.6 0.1 |
| Zephyr Cove | 8/30/26 | 72.6 0.1 | 50.3 4.5 | 64 14 | 22 4 | 0.6 0.0 | NW | 313 | 7.8 1.5 | NW | 314 | 1617 | 0.00 | 0.32 | - | 2.7 0.0 | 64.0 0.2 | 9 10 | 12.6 0.1 |
| Kingsbury Grade | 8/30/26 | 73.8 2.8 | 46.8 3.3 | 63 23 | 22 4 | 2.4 0.5 | ENE | 71 | 12.8 6.6 | ESE | 116 | 1005 | 0.00 | 0.28 | - | 2.4 0.0 | 63.2 1.4 | 9 12 | 12.5 0.0 |
| South Daggett Pass (Ridge) | 8/30/26 | 70.4 4.7 | 51.3 1.8 | 61 28 | 22 4 | 2.2 0.3 | SSW | 195 | 15.9 8.9 | NNW | 332 | 1553 | 0.00 | 0.29 | - | 2.2 0.0 | 60.0 3.0 | 10 14 | 12.6 0.1 |
| Palomino Valley | 8/30/26 | 84.6 1.6 | 42.3 8.3 | 59 35 | 15 1 | 3.8 2.5 | N | 5 | 17.4 14.0 | N | 349 | 1720 | 0.00 | 0.03 | - | 6.7 0.0 | 68.1 0.6 | 7 5 | 12.6 0.1 |
| East Cold Springs | 8/30/26 | 80.8 2.8 | 49.1 4.1 | 45 35 | 19 1 | 6.7 1.7 | W | 274 | 19.4 8.2 | E | 99 | 1220 | 0.00 | 0.00 | - | 1.6 0.0 | 67.8 0.7 | 6 2 | 12.7 0.1 |
| Peavine | 8/21/26 | 85.5 2.3 | 67.3 4.2 | 34 3 | 21 5 | 8.3 2.3 | SSW | 213 | 26.8 4.0 | SSW | 210 | 2106 | 0.00 | 0.00 | - | - | - | - | 12.6 0.0 |
| West Verdi Peak | 8/30/26 | 78.7 5.1 | 47.0 5.9 | 51 25 | 18 1 | 2.2 1.3 | SW | 220 | 14.5 11.5 | ESE | 102 | 1339 | 0.00 | 0.02 | - | 6.6 0.0 | 65.2 0.1 | 6 5 | 12.6 0.1 |
| West Verdi | 8/30/26 | 82.1 4.0 | 45.8 9.9 | 58 21 | 14 5 | 3.2 2.4 | SW | 219 | 16.6 14.7 | W | 260 | 1804 | 0.00 | 0.06 | - | 6.3 0.0 | 69.7 0.3 | 4 5 | 12.7 0.1 |
| South Verdi | 8/30/26 | 80.8 5.7 | 51.7 3.5 | 44 33 | 18 4 | 9.1 3.3 | SSW | 200 | 23.5 17.0 | SSW | 203 | 1907 | 0.00 | 0.08 | - | 10.6 0.0 | 69.6 3.0 | 6 5 | 12.7 0.1 |
| Northwest Reno | 8/30/26 | 81.3 3.5 | 55.3 1.0 | 43 41 | 17 3 | 5.3 6.3 | NNE | 29 | 20.2 19.8 | NNW | 345 | 1855 | 0.00 | 0.05 | - | 25.1 0.0 | -17.7 | - | 12.6 0.1 |
| North Lawton | 8/27/26 | 85.2 2.6 | 66.7 6.0 | 35 16 | 18 2 | 8.9 1.0 | SW | 230 | 25.0 2.4 | SW | 236 | 1526 | 0.00 | 0.00 | - | - | - | - | 12.6 0.0 |
| West Reno (Mogul) | 8/30/26 | 81.8 4.3 | 49.6 7.9 | 51 30 | 17 1 | 4.4 1.9 | WSW | 247 | 18.5 12.0 | W | 270 | 2034 | 0.00 | 0.00 | - | 19.7 0.1 | 71.7 0.1 | 2 5 | 12.6 0.1 |
| Caughlin (Hunter Lake Trail) | 8/30/26 | 81.6 5.2 | 53.6 3.3 | 46 37 | 17 2 | 4.8 3.1 | S | 186 | 21.6 14.7 | WNW | 286 | 1958 | 0.00 | 0.12 | - | 16.6 0.1 | 70.1 1.5 | 8 6 | 12.7 0.1 |
| ArrowCreek | 8/30/26 | 80.7 2.4 | 51.6 3.2 | 50 32 | 18 1 | 4.8 1.0 | SSE | 152 | 17.3 12.9 | NE | 45 | 1713 | 0.00 | 0.14 | - | - | - | - | 12.4 0.2 |
| Tracy | 8/30/26 | 84.6 0.0 | 55.0 2.6 | 48 38 | 14 3 | 4.4 2.9 | ESE | 117 | 15.0 11.9 | ESE | 112 | 1236 | 0.00 | 0.09 | - | 16.2 0.0 | 73.4 0.9 | 7 5 | 12.8 0.0 |
| Virginia Highlands | 8/30/26 | 77.8 5.4 | 54.2 2.7 | 49 26 | 17 5 | 3.0 2.3 | S | 179 | 17.5 8.8 | E | 92 | 1144 | 0.00 | 0.12 | - | 8.0 0.1 | 67.4 1.2 | 7 6 | 12.6 0.1 |
| Virginia City | 8/30/26 | 75.6 3.5 | 54.9 2.0 | 43 33 | 19 5 | 4.8 3.6 | N | 7 | 18.1 9.8 | WNW | 301 | 1933 | 0.00 | 0.12 | - | 4.8 0.0 | 70.6 3.8 | 7 7 | 12.7 0.1 |
| Six Mile Canyon | 8/30/26 | 85.2 3.2 | 52.1 3.6 | 50 41 | 14 4 | 3.6 4.1 | NE | 43 | 16.6 12.3 | E | 97 | 1401 | 0.00 | 0.10 | - | 12.4 0.1 | 74.2 2.5 | 5 6 | 12.8 0.1 |
| Mt Rose Highway | 8/30/26 | 73.2 5.4 | 49.8 2.8 | 50 33 | 21 3 | 2.3 1.9 | SSW | 197 | 15.5 16.5 | WSW | 254 | 1929 | 0.00 | 0.23 | - | 7.4 0.0 | 59.9 0.4 | 8 7 | 12.6 0.1 |
| Pleasant Valley | 8/30/26 | 83.6 5.5 | 46.3 7.0 | 63 23 | 14 7 | 3.5 5.0 | SSW | 198 | 22.7 10.7 | SSW | 204 | 1519 | 0.00 | 0.14 | - | 2.4 0.0 | 70.6 0.6 | 9 8 | 12.6 0.1 |
| New Washoe City | 8/30/26 | 81.1 4.3 | 47.8 7.7 | 51 33 | 16 2 | 4.1 3.0 | E | 87 | 18.1 12.0 | WSW | 251 | 1611 | 0.00 | 0.08 | - | 3.5 0.0 | 68.8 1.4 | 9 7 | 12.6 0.1 |
| Franktown Creek | 8/30/26 | 81.1 3.8 | 46.6 7.1 | 66 27 | 17 2 | 1.6 1.5 | WSW | 242 | 15.9 8.4 | SSE | 167 | 1346 | 0.00 | 0.14 | - | 7.1 0.1 | 64.2 1.4 | 9 7 | 12.6 0.1 |
| Musgrove Creek | 8/30/26 | 77.5 3.4 | 51.5 3.3 | 51 26 | 20 3 | 1.8 0.5 | SSW | 209 | 17.4 4.2 | NNE | 20 | 1404 | 0.00 | 0.21 | - | 10.2 0.0 | 68.6 1.2 | 9 7 | 12.6 0.1 |
| East Carson | 11/22/24 | 63.8 0.3 | 41.7 4.6 | 85 21 | 21 9 | 14.9 6.0 | SW | 224 | 46.6 12.7 | S | 171 | 1835 | 0.05 | 0.05 | 4.48 | 2.5 0.0 | 53.9 0.3 | 9 0 | 12.6 0.0 |
| Kings Canyon | 8/30/26 | 79.8 3.6 | 49.1 4.8 | 55 37 | 19 6 | 4.6 0.4 | SSW | 196 | 20.5 2.6 | WSW | 241 | 1930 | 0.00 | 0.13 | - | 4.1 0.0 | 68.3 1.4 | 7 8 | 12.6 0.0 |
| Carson City (Voltaire Canyon) | 8/30/26 | 81.3 3.1 | 55.7 1.8 | 44 41 | 18 5 | 6.1 2.2 | W | 271 | 18.6 13.7 | WSW | 240 | 2015 | 0.00 | 0.00 | - | 2.8 0.0 | -10.9 | - | 12.7 0.1 |
| Jacks Valley | 8/30/26 | 80.5 3.0 | 49.8 4.0 | 53 33 | 18 5 | 4.1 1.1 | WNW | 296 | 20.1 8.6 | WNW | 292 | 1735 | 0.00 | 0.24 | - | 4.5 0.0 | 69.9 2.5 | 6 14 | 12.7 0.1 |
| Genoa | 8/30/26 | 83.4 3.4 | 48.6 5.5 | 61 35 | 19 3 | 0.9 0.2 | WSW | 246 | 14.2 2.1 | NNE | 22 | 1555 | 0.00 | 0.15 | - | 2.2 0.2 | 68.5 1.4 | 10 13 | 12.4 0.1 |
| South Genoa (Walleys Hot Springs) | 8/30/26 | 83.3 3.0 | 41.6 9.2 | 82 15 | 19 2 | 3.8 0.0 | NNW | 340 | 24.6 0.2 | WSW | 254 | 1953 | 0.00 | 0.13 | - | 4.9 0.0 | 71.0 1.0 | 8 11 | 12.6 0.1 |
| SW Gardnerville (HWY 88) | 8/30/26 | 81.2 2.0 | 42.5 6.3 | 84 14 | 20 1 | 3.7 1.6 | NNW | 327 | 18.5 11.5 | WNW | 283 | 1806 | 0.00 | 0.03 | - | 2.8 0.0 | 66.7 1.0 | 10 8 | 9.5 0.0 |
| Sheridan | 8/30/26 | 82.4 2.8 | 45.4 7.7 | 67 21 | 20 1 | 4.0 0.6 | WNW | 284 | 20.9 8.3 | NW | 325 | 1809 | 0.00 | 0.05 | - | 1.1 0.0 | 72.2 2.2 | 5 7 | 12.6 0.1 |
| Ruhenstroth | 8/30/26 | 82.0 2.4 | 50.4 2.1 | 54 38 | 16 0 | 3.7 3.6 | W | 276 | 19.5 7.7 | NW | 314 | 1727 | 0.00 | 0.06 | - | 6.9 0.1 | 70.2 0.8 | 7 7 | 12.7 0.1 |
| Double Spring | 8/30/26 | 78.2 3.5 | 38.8 10.7 | 71 21 | 18 2 | 4.1 1.3 | NNW | 337 | 17.8 7.8 | N | 5 | 1624 | 0.00 | 0.14 | - | 25.6 0.1 | 65.3 1.3 | 9 9 | 12.6 0.1 |
| North Topaz Lake | 8/30/26 | 80.7 3.1 | 57.9 0.8 | 45 41 | 17 3 | 5.1 0.7 | WNW | 300 | 19.9 5.3 | SSE | 147 | 1803 | 0.00 | 0.22 | - | 7.5 0.1 | 73.2 3.5 | 7 9 | 12.7 0.2 |
| Wild Oat Mountain | 8/30/26 | 78.0 2.4 | 54.1 2.2 | 42 37 | 18 2 | 4.8 3.4 | N | 10 | 19.6 9.7 | ENE | 78 | 1608 | 0.00 | 0.13 | - | 5.8 0.0 | 70.5 3.6 | 7 9 | 12.7 0.2 |
| Smith Valley | 8/30/26 | 82.8 0.6 | 50.0 4.2 | 51 43 | 17 1 | 3.5 2.5 | NNW | 342 | 14.3 15.5 | W | 274 | 2253 | 0.00 | 0.12 | - | 2.8 0.0 | 72.2 0.7 | 8 15 | 12.7 0.1 |
| Pine Grove Mountain | 8/30/26 | 69.6 0.7 | 51.4 0.6 | 40 38 | 19 1 | 4.8 4.2 | N | 11 | 17.9 13.7 | ENE | 75 | 1131 | 0.00 | 0.11 | - | 7.4 0.1 | 63.5 0.5 | 6 6 | 12.7 0.1 |
| Paradise Hill | 8/30/26 | 79.8 2.6 | 46.5 4.2 | 46 48 | 16 2 | 5.9 2.3 | N | 5 | 26.8 9.2 | WNW | 298 | 1430 | 0.00 | 0.02 | - | 10.3 0.1 | 69.5 0.6 | 6 7 | 12.7 0.2 |
| Winnemucca | 8/30/26 | 81.3 1.2 | 49.6 3.8 | 42 44 | 13 6 | 5.1 2.6 | NNE | 18 | 18.4 13.0 | W | 264 | 1424 | 0.00 | 0.02 | - | 5.8 0.0 | 69.8 2.9 | 6 4 | 12.6 0.1 |
| NE Elko | 8/30/26 | 80.8 0.1 | 45.2 1.5 | 64 33 | 12 2 | 4.0 4.6 | ENE | 74 | 21.7 5.1 | SW | 230 | 1618 | 0.00 | 0.02 | - | 5.8 0.0 | 65.6 10.2 | 4 1 | 12.5 0.0 |
| North Elko | 8/30/26 | 78.4 0.8 | 54.1 2.1 | 48 40 | 12 4 | 7.1 0.9 | WNW | 295 | 20.7 14.9 | SW | 230 | 1552 | 0.00 | 0.05 | - | 24.9 0.1 | 69.8 1.6 | 6 7 | 12.6 0.0 |
| South Elko | 8/30/26 | - | 58.7 3.9 | 97 3 | 18 15 | 6.1 0.3 | NW | 316 | 23.4 7.1 | WNW | 282 | 1535 | 0.00 | 0.03 | - | 13.8 0.0 | 72.3 1.9 | 0 0 | 12.6 0.1 |
| Lamoille | 8/30/26 | 77.6 0.5 | 47.9 13.7 | 58 19 | 14 2 | 5.7 3.3 | SSW | 204 | 22.1 4.7 | WSW | 257 | 1454 | 0.00 | 0.02 | - | 6.6 0.1 | 67.0 1.7 | 6 0 | 12.6 0.2 |
| Reid Gardner Sub | 8/30/26 | 101.4 6.3 | 76.4 10.4 | 30 8 | 15 2 | 8.8 0.5 | SSW | 204 | 28.4 2.0 | S | 182 | 1230 | 0.00 | 0.00 | - | 26.1 0.2 | 94.1 5.2 | 2 0 | 12.6 0.0 |
| Corn Creek | 8/30/26 | 95.2 3.8 | 77.7 6.0 | 30 2 | 15 4 | 7.0 1.2 | S | 182 | 34.4 1.6 | ESE | 104 | 1503 | 0.00 | 0.00 | - | 3.2 0.0 | 87.3 6.1 | 2 0 | 12.5 0.0 |
| Lucky Strike | 8/30/26 | 83.4 4.6 | 72.9 2.1 | 31 0 | 15 5 | 5.8 3.9 | WSW | 246 | 29.6 2.6 | S | 178 | 1521 | 0.00 | 0.00 | - | 3.2 0.0 | 76.7 7.3 | 3 0 | 12.6 0.0 |
| Lower Angel Peak | 8/30/26 | 76.8 6.3 | 64.7 4.0 | 42 3 | 20 5 | 4.5 1.6 | SSE | 161 | 21.6 7.0 | SW | 215 | 1459 | 0.00 | 0.00 | - | 3.2 0.0 | 68.8 9.2 | 3 0 | 12.6 0.0 |
| Angel Peak | 8/30/26 | 63.5 5.5 | 57.3 2.1 | 48 3 | 24 8 | 8.5 4.7 | S | 170 | 36.4 0.5 | SSW | 198 | 1427 | 0.00 | 0.00 | - | 2.5 0.1 | 60.5 5.6 | 6 0 | 12.5 0.0 |
| Upper Kyle Canyon | 8/30/26 | 70.9 2.5 | 61.2 0.2 | 44 6 | 25 7 | 6.1 2.5 | NNW | 331 | 36.1 0.9 | ESE | 119 | 1415 | 0.00 | 0.00 | - | 7.8 0.0 | 69.2 3.1 | 6 0 | 12.6 0.0 |
| Mt Charleston | 8/30/26 | 70.4 6.0 | 58.9 0.7 | 46 5 | 26 5 | 4.8 2.0 | W | 268 | 28.3 3.1 | SSW | 192 | 1254 | 0.00 | 0.00 | - | 13.5 0.0 | 71.2 2.6 | 11 1 | 12.6 0.0 |
| Mid Kyle Canyon | 8/30/26 | 76.5 5.4 | 64.8 2.2 | 41 2 | 22 5 | 7.5 0.0 | WSW | 256 | 29.7 0.6 | W | 260 | 1408 | 0.00 | 0.00 | - | 5.9 0.1 | 69.3 9.3 | 6 0 | 12.7 0.0 |
| Blue Diamond | 8/30/26 | 92.1 4.7 | 77.0 5.5 | 32 1 | 18 1 | 6.5 3.5 | WNW | 282 | 26.7 3.4 | W | 273 | 1330 | 0.00 | 0.00 | - | 1.3 0.0 | - | - | 12.6 0.0 |
| Artesian Sub | 8/30/26 | 102.9 4.2 | 87.1 3.7 | 26 3 | 15 0 | 5.5 0.6 | S | 176 | 22.5 1.9 | SSE | 151 | 1147 | 0.00 | 0.00 | - | 11.8 0.0 | - | 0 0 | 12.7 0.0 |
| North Henderson | 8/30/26 | 103.0 3.7 | 90.5 3.5 | 40 11 | 14 2 | 8.3 1.1 | SSW | 208 | 27.6 1.5 | SSW | 200 | 0808 | 0.00 | 0.00 | - | 10.5 0.1 | 97.6 4.7 | 2 0 | 12.6 0.0 |
| Sandy Valley | 8/30/26 | 95.1 4.2 | 80.1 4.4 | 35 4 | 18 2 | 6.7 1.0 | WSW | 255 | 26.1 0.4 | WSW | 248 | 1515 | 0.00 | 0.00 | - | 8.9 0.3 | 88.3 4.2 | 4 1 | 12.6 0.0 |
| Searchlight | 8/30/26 | 94.8 4.9 | 76.2 2.7 | 60 19 | 21 1 | 7.9 0.4 | S | 187 | 28.6 0.1 | S | 183 | 1146 | 0.00 | 0.00 | - | 6.3 0.1 | 89.6 3.2 | 2 0 | 12.6 0.0 |
| Laughlin | 8/30/26 | 109.6 4.9 | 89.4 3.8 | 43 11 | 17 2 | 7.3 1.1 | S | 177 | 39.0 8.7 | SE | 144 | 1312 | 0.00 | 0.00 | - | 4.7 | 100.2 3.5 | 5 0 | 12.7 0.0 |
| 31Mission Hills | 8/30/26 | 99.0 3.5 | 85.6 2.0 | 39 11 | 15 0 | 9.1 0.3 | SW | 215 | 28.2 5.6 | W | 276 | 1435 | 0.00 | 0.53 | - | 7.4 0.0 | 94.2 3.4 | 4 0 | 13.2 0.0 |
| 32 Enterprise Sierra Cliffs | 8/30/26 | 94.4 4.5 | 82.9 2.9 | 27 0 | 13 3 | 13.6 0.0 | SW | 219 | 31.9 5.1 | SW | 220 | 1601 | 0.00 | 0.00 | - | 1.5 0.1 | 89.3 5.2 | 4 0 | 13.2 0.0 |
| 29 Calico Basin | 8/30/26 | 90.8 4.8 | 81.5 2.4 | 23 5 | 16 2 | 12.1 1.8 | SW | 225 | 32.8 0.9 | WSW | 240 | 1412 | 0.00 | 0.00 | - | 2.8 0.2 | 86.0 5.4 | 3 0 | 13.2 0.0 |
| 28 Indian Springs | 8/30/26 | 96.1 0.9 | 76.4 9.8 | 24 2 | 6 11 | 9.3 1.2 | SW | 221 | 34.0 1.2 | W | 260 | 1117 | 0.00 | 0.00 | - | 4.9 0.1 | 88.3 3.7 | 4 0 | 13.2 0.0 |
| 30 Jean | 8/30/26 | 94.8 3.5 | 76.5 1.8 | 32 5 | 15 1 | 9.0 2.0 | WSW | 246 | 32.4 0.1 | WSW | 258 | 1337 | 0.00 | 0.00 | - | 5.6 0.2 | 87.5 4.6 | 3 0 | 13.2 0.0 |
| VC Highlands NW | 8/30/26 | 75.8 3.6 | 52.1 4.5 | 46 26 | 15 4 | 2.7 1.8 | SE | 140 | 17.8 7.7 | SW | 217 | 1342 | 0.00 | 0.12 | - | 1.6 0.0 | 65.7 0.5 | 8 5 | 13.1 0.0 |
| Glenbrook-Spooner Summit | 8/30/26 | 70.4 3.4 | 41.6 6.7 | 69 25 | 19 11 | 3.5 1.5 | WSW | 255 | 18.1 7.3 | WSW | 252 | 1702 | 0.00 | 0.31 | - | 7.8 0.0 | 60.5 0.9 | 10 10 | 13.2 0.0 |
| Hobo Hot Springs | 8/30/26 | 83.5 3.3 | 40.4 10.8 | 82 14 | 15 2 | 3.4 2.0 | NW | 310 | 17.0 12.4 | NW | 311 | 1603 | 0.00 | 0.13 | - | 1.0 0.0 | 67.2 0.0 | 9 10 | 13.2 0.0 |
| Jack Valley Ranch 2 | 8/30/26 | 81.1 4.2 | 49.4 5.5 | 52 31 | 17 4 | 4.7 0.4 | NNW | 340 | 18.5 5.2 | WSW | 248 | 1546 | 0.00 | 0.23 | - | 2.1 0.0 | 70.9 2.0 | 7 11 | 13.2 0.0 |
| Genoa North 2 | 8/30/26 | 82.3 3.2 | 49.2 5.4 | 54 38 | 17 3 | 3.3 0.6 | W | 269 | 18.1 10.8 | S | 172 | 1558 | 0.00 | 0.10 | - | 0.8 0.0 | 69.7 1.2 | 8 12 | 13.2 0.0 |
| Mottsville 2 | 8/30/26 | 82.6 3.2 | 43.9 7.3 | 70 27 | 18 3 | 3.2 0.7 | NNE | 21 | 31.9 1.4 | NNW | 328 | 1922 | 0.00 | 0.18 | - | 1.2 0.0 | 67.8 0.7 | 10 15 | 13.2 0.0 |
| Kingsbury Village 3 | 8/30/26 | 69.1 3.4 | 45.8 2.9 | 64 20 | 23 4 | 2.4 0.0 | N | 7 | 10.2 6.1 | S | 183 | 1148 | 0.00 | 0.29 | - | 3.2 0.1 | 58.4 1.0 | 13 19 | 13.2 0.0 |
| Kingsbury-Benjamin Dr 2 | 8/30/26 | 70.3 2.4 | 48.3 2.9 | 58 23 | 23 3 | 1.5 0.5 | WNW | 285 | 14.4 8.1 | SSW | 206 | 1401 | 0.00 | 0.29 | - | 3.6 0.4 | 62.1 1.8 | 9 10 | 13.2 0.0 |
| Smith Valley-Wellington | 8/30/26 | 83.2 1.4 | 46.2 9.1 | 65 23 | 14 1 | 3.6 3.4 | SSW | 199 | 13.3 15.9 | N | 351 | 0255 | 0.00 | 0.03 | - | 3.6 0.0 | 71.2 0.9 | 7 6 | 13.2 0.0 |
| Sheridan South 2 | 8/30/26 | 81.0 1.8 | 44.1 5.4 | 70 24 | 19 1 | 3.7 0.2 | N | 349 | 21.5 8.1 | W | 260 | 1904 | 0.00 | 0.07 | - | 0.5 0.0 | 69.1 1.1 | 9 11 | 13.2 0.0 |
| Silver Springs | 8/30/26 | 83.7 0.2 | 51.7 4.1 | 51 44 | 12 1 | 4.2 4.0 | ENE | 76 | 15.8 21.2 | N | 352 | 0933 | 0.00 | 0.08 | - | 5.1 0.0 | 74.0 1.1 | 8 9 | 13.1 0.0 |
| Fernley | 8/30/26 | 83.3 0.8 | 53.4 0.7 | 37 58 | 12 2 | 4.8 2.0 | SE | 144 | 22.2 17.3 | E | 92 | 1449 | 0.00 | 0.16 | - | 3.1 0.1 | 74.4 1.2 | 7 8 | 13.1 0.0 |
| Spanish Springs | 8/30/26 | 84.2 2.4 | 45.6 6.2 | 61 33 | 14 0 | 2.2 2.6 | ENE | 76 | 20.7 2.6 | NW | 323 | 1836 | 0.00 | 0.06 | - | 10.6 0.0 | 72.8 0.1 | 8 9 | 13.2 0.0 |
| Suttcliffe South 2 | 8/30/26 | 81.5 2.8 | 45.8 8.8 | 48 35 | 15 1 | 4.9 4.5 | NNW | 344 | 15.9 13.2 | ENE | 64 | 1244 | 0.00 | 0.00 | - | 4.5 0.0 | - | 6 4 | 12.7 0.5 |
| Lemmon Valley North | 8/30/26 | 80.5 2.0 | 35.9 9.0 | 61 34 | 15 0 | 3.2 3.3 | SW | 225 | 18.1 9.9 | SW | 231 | 1851 | 0.00 | 0.02 | - | 2.1 0.0 | 65.9 1.2 | 7 6 | 13.2 0.0 |
| Lemmon Valley NW 3 | 8/30/26 | 81.9 2.2 | 40.8 6.5 | 57 38 | 14 0 | 4.0 2.6 | NE | 39 | 20.1 9.6 | NNW | 331 | 1846 | 0.00 | 0.02 | - | 1.3 0.1 | 67.0 0.3 | 7 5 | 13.2 0.0 |
| VC Highlands North | 8/30/26 | 77.5 4.5 | 40.5 9.7 | 62 28 | 13 6 | 2.1 4.0 | SSW | 206 | 16.6 12.6 | SW | 218 | 1416 | 0.00 | 0.09 | - | 5.0 0.2 | 63.9 0.6 | 9 9 | 13.2 0.0 |
| Upper Voltaire Cyn | 8/30/26 | 77.3 3.2 | 57.0 0.1 | 41 35 | 17 6 | 5.7 0.8 | WNW | 300 | 18.9 11.0 | SSW | 202 | 1540 | 0.00 | 0.23 | - | 1.1 0.0 | 70.2 3.9 | 10 11 | 13.2 0.0 |
| Yerington NW | 8/30/26 | 82.0 1.2 | 47.7 4.2 | 83 14 | 15 3 | 3.7 3.6 | NNE | 25 | 11.9 20.4 | ENE | 62 | 1743 | 0.00 | 0.20 | - | 7.3 0.0 | 68.4 0.2 | 12 21 | 13.2 0.0 |
| Spanish Springs SW | 8/30/26 | 83.1 2.7 | 47.7 4.8 | 48 42 | 14 0 | 3.7 2.6 | W | 276 | 20.7 8.0 | WNW | 300 | 1906 | 0.00 | 0.05 | - | 1.5 0.1 | 71.1 0.8 | 8 8 | 13.2 0.0 |
| Cosgrave 2 | 8/26/26 | 94.1 3.1 | 59.4 0.6 | 40 15 | 11 2 | 5.7 1.4 | SSW | 205 | 26.1 5.0 | WSW | 249 | 1345 | 0.00 | 0.00 | - | 4.0 0.1 | 82.4 4.3 | 5 1 | 13.2 0.0 |
| Winnemucca-Grass Valley 2 | 8/30/26 | 80.8 0.3 | 40.4 14.8 | 78 10 | 13 4 | 4.4 2.6 | ENE | 69 | 15.8 11.6 | ENE | 64 | 1507 | 0.00 | 0.14 | - | 8.1 0.1 | 66.0 4.3 | 10 13 | 13.2 0.0 |
| Winnemucca-Dutch Flat Rd | 8/30/26 | 80.0 0.9 | 52.2 0.5 | 41 51 | 13 3 | 6.6 0.9 | NNW | 343 | 29.6 3.7 | WSW | 243 | 1616 | 0.00 | 0.07 | - | 6.2 0.0 | 67.4 0.7 | 7 14 | 13.2 0.0 |
| Paradise Valley 2 | 8/30/26 | 79.4 0.0 | 42.0 8.8 | 61 24 | 14 4 | 3.7 1.6 | WNW | 296 | 20.6 13.4 | SE | 139 | 1416 | 0.00 | 0.14 | - | 12.8 0.2 | 63.5 2.1 | 7 3 | 13.2 0.0 |
| Golconda 2 | 8/30/26 | 80.6 0.9 | 51.7 4.0 | 42 45 | 12 5 | 6.1 2.0 | NNW | 327 | 26.8 4.8 | NW | 308 | 1655 | 0.00 | 0.11 | - | 1.9 0.1 | 70.0 1.6 | 9 12 | 13.1 0.0 |
| Battle Mountain - South | 8/30/26 | 83.0 0.1 | 45.8 7.4 | 42 49 | 10 6 | 4.3 1.7 | NNE | 22 | 20.1 10.2 | W | 269 | 1353 | 0.00 | 0.01 | - | 9.1 0.0 | 70.8 2.6 | 5 6 | 13.1 0.0 |
| Geiger Summit | 8/30/26 | 74.0 4.3 | 52.1 1.4 | 100 0 | 100 0 | 2.9 3.1 | ESE | 102 | 14.3 8.8 | S | 178 | 1219 | 0.00 | 0.13 | - | 6.4 0.0 | 62.0 0.9 | 8 6 | 13.2 0.0 |
| Combs Canyon 3 | 8/30/26 | 81.4 3.0 | 52.2 2.6 | 56 34 | 17 3 | 5.6 0.1 | NW | 314 | 19.2 7.2 | WNW | 300 | 1545 | 0.00 | 0.11 | - | 1.0 0.0 | 71.9 3.1 | 8 7 | 13.2 0.0 |
| Clear Creek | 8/30/26 | 78.4 4.2 | 47.2 8.6 | 50 28 | 17 7 | 3.2 2.3 | SW | 235 | 17.9 9.9 | W | 281 | 1622 | 0.00 | 0.23 | - | 3.4 0.0 | 65.8 0.4 | 10 9 | 13.1 0.0 |
| Eastlake 2 | 8/30/26 | 80.6 3.0 | 45.0 6.9 | 74 8 | 15 4 | 4.5 1.7 | SW | 219 | 22.7 4.6 | WSW | 246 | 1926 | 0.00 | 0.11 | - | 3.4 0.0 | 66.8 1.7 | 8 5 | 13.3 0.0 |
| Lovelock-Colado 2 | 8/30/26 | 83.5 1.0 | 46.5 7.9 | 48 45 | 12 4 | 5.2 0.2 | NNE | 27 | 17.6 9.3 | NNE | 19 | 0855 | 0.00 | 0.06 | - | - | 69.8 0.0 | 7 8 | 13.1 0.0 |
| Spanish Springs NW | 8/30/26 | 84.0 1.8 | 45.2 6.2 | 61 33 | 14 0 | 2.7 2.3 | SE | 132 | 19.1 6.8 | NW | 311 | 1836 | 0.00 | 0.04 | - | 12.9 0.1 | - | 6 7 | 13.1 0.0 |
| Battle Mountain NW | 8/30/26 | 81.3 2.7 | 54.5 1.8 | 34 57 | 13 2 | 5.6 1.2 | WNW | 299 | 24.7 4.8 | NNW | 341 | 1445 | 0.00 | 0.02 | - | 9.1 0.1 | 71.8 0.3 | 5 5 | 13.2 0.0 |
| Austin 2 | 8/30/26 | 76.7 0.1 | 40.2 6.7 | 60 33 | 11 6 | 6.0 2.0 | W | 260 | 23.6 7.2 | WNW | 302 | 1209 | 0.00 | 0.13 | - | 2.4 0.1 | 66.2 0.1 | 9 14 | 13.2 0.0 |
| Elko-Osino | 8/30/26 | 80.7 1.6 | 44.8 12.0 | 63 8 | 10 2 | 5.8 4.3 | WNW | 282 | 22.6 8.8 | SSW | 200 | 1247 | 0.00 | 0.00 | - | 1.5 0.1 | 68.6 6.4 | 7 0 | 13.1 0.0 |
| Elko-Bill Fishpond 2 | 8/30/26 | 78.1 0.7 | 46.1 16.1 | 55 10 | 13 10 | 5.8 2.4 | SW | 214 | 19.0 5.3 | W | 270 | 1522 | 0.00 | 0.00 | - | 3.5 0.1 | 65.5 9.0 | 6 0 | 13.1 0.0 |
| Spring Creek SE 2 | 8/30/26 | 80.6 | 46.4 | 62 | 11 | 7.1 | NW | 324 | 21.0 | WNW | 302 | 1717 | 0.00 | 0.00 | - | 0.4 | 74.9 | 6 | 13.0 |
| Spring Creek NW | 8/30/26 | 79.1 | 55.6 | 44 | 12 | 5.8 | NW | 314 | 19.4 | WNW | 292 | 1632 | 0.00 | 0.00 | - | 2.2 | 76.3 | 5 | 13.2 |
| Max | 109.6 | 90.5 | 100 | 100 | 13.6 | - | 39.0 | - | - | 0.00 | - | - | 42.7 | 100.2 | 20 | 13.3 | |
| Avg | - | - | - | - | 4.7 | - | - | - | - | - | - | - | 6.9 | 67.2 | 7 | - | |
| Min | 63.5 | 32.3 | 23 | 6 | 0.0 | - | 7.8 | - | - | 0.00 | - | - | 0.4 | -17.7 | 0 | 9.5 |